Wan Hai 501 — S6AS7 — position and weather

sailwx.info

Track history (hours):
 
Tides and Currents Weather Stations Pressure Air Temp Water Temp Dewpoint Dewpoint Depression Visibility Wind Speed Wind Dir Waves Ship Positions

Wan Hai 501

Last reported at 2016-Jun-30 00:28 UTC. Time now 2016-Jun-30 01:31 UTC.
Position N 01°16' E 103°50'.

Length 269 m; draft 9.6 m.

Type: Cargo ship. MMSI: 563382000.

Date/timePositionNaut miles runAvg speedWind from/ knotsBaromVisibWave heightAir tempDewpointWater temp
2016-Jun-30 00:28N 01°16' E 103°50'0 0.0
2016-Jun-29 23:31N 01°16' E 103°50'3 2.9
2016-Jun-29 22:33N 01°14' E 103°52'3 3.0
2016-Jun-29 21:33N 01°11' E 103°51'6512.8
2016-Jun-29 16:27N 01°37' E 102°51'1514.6
2016-Jun-29 15:26N 01°44' E 102°38'1714.3
2016-Jun-29 14:15N 01°51' E 102°22'1313.9
2016-Jun-29 13:18N 01°57' E 102°11'1114.3
2016-Jun-29 12:32N 02°05' E 102°03'1414.4
2016-Jun-29 11:33N 02°14' E 101°52'  
Track history (hours):
 
Tides and Currents Weather Stations Pressure Air Temp Water Temp Dewpoint Dewpoint Depression Visibility Wind Speed Wind Dir Waves Ship Positions

Wan Hai 501

Last reported at 2016-Jun-30 00:28 UTC. Time now 2016-Jun-30 01:31 UTC.
Position N 01°16' E 103°50'.

Length 269 m; draft 9.6 m.

Type: Cargo ship. MMSI: 563382000.

Date/timePositionNaut miles runAvg speedWind from/ knotsBaromVisibWave heightAir tempDewpointWater temp
2016-Jun-30 00:28N 01°16' E 103°50'0 0.0
2016-Jun-29 23:31N 01°16' E 103°50'3 2.9
2016-Jun-29 22:33N 01°14' E 103°52'3 3.0
2016-Jun-29 21:33N 01°11' E 103°51'6512.8
2016-Jun-29 16:27N 01°37' E 102°51'1514.6
2016-Jun-29 15:26N 01°44' E 102°38'1714.3
2016-Jun-29 14:15N 01°51' E 102°22'1313.9
2016-Jun-29 13:18N 01°57' E 102°11'1114.3
2016-Jun-29 12:32N 02°05' E 102°03'1414.4
2016-Jun-29 11:33N 02°14' E 101°52'  

Dump ship's entire track history